Time;durP1;ratioP1;P1;durP2;ratioP2;P2;SDS_P1;SDS_P2;PMS_P1;PMS_P2;Temp;Humidity;BMP_temperature;BMP_pressure;BME280_temperature;BME280_humidity;BME280_pressure;Samples;Min_cycle;Max_cycle;Signal;HPM_P1;HPM_P2
2023/10/06 00:00:54;;;;;;;9.85;3.13;;;14.80;66.10;;;;;;4905912;29;20474;-95
2023/10/06 00:03:49;;;;;;;8.50;2.50;;;14.80;66.00;;;;;;4935104;29;20128;-96
2023/10/06 00:06:27;;;;;;;8.23;2.80;;;14.90;65.50;;;;;;4905230;29;20080;-96
2023/10/06 00:14:18;;;;;;;7.72;2.90;;;14.90;65.60;;;;;;4939110;28;20075;-96
2023/10/06 00:21:21;;;;;;;19.57;2.83;;;14.80;65.90;;;;;;4938733;29;20064;-96
2023/10/06 00:50:36;;;;;;;11.93;2.83;;;14.50;72.90;;;;;;5729240;23;20890;-96
2023/10/06 00:53:33;;;;;;;12.00;3.10;;;14.50;73.20;;;;;;4850127;29;20069;-96
2023/10/06 01:00:41;;;;;;;9.15;3.58;;;14.40;73.80;;;;;;4858503;29;20049;-96
2023/10/06 01:03:25;;;;;;;8.90;3.22;;;14.30;73.40;;;;;;4832485;29;20106;-95
2023/10/06 02:07:35;;;;;;;11.63;3.80;;;14.30;75.80;;;;;;1125263;23;20316;-94
2023/10/06 03:20:22;;;;;;;10.50;4.17;;;14.30;74.90;;;;;;5802259;23;20032;-95
2023/10/06 03:22:51;;;;;;;10.43;3.80;;;14.30;74.90;;;;;;4827497;29;20094;-95
2023/10/06 03:25:18;;;;;;;8.93;3.97;;;14.30;74.90;;;;;;4812140;29;20049;-94
2023/10/06 03:27:53;;;;;;;11.23;4.15;;;14.40;75.00;;;;;;4812562;29;20042;-95
2023/10/06 03:30:27;;;;;;;11.05;4.55;;;14.40;75.10;;;;;;4812634;29;20060;-95
2023/10/06 03:32:57;;;;;;;12.20;3.73;;;14.40;74.90;;;;;;4828103;29;20054;-95
2023/10/06 03:35:45;;;;;;;11.00;3.80;;;14.30;74.90;;;;;;4811975;29;20140;-94
2023/10/06 03:43:40;;;;;;;11.23;4.15;;;14.10;75.30;;;;;;4827098;29;20064;-94
2023/10/06 03:46:15;;;;;;;10.53;4.10;;;14.00;75.60;;;;;;4811805;29;20046;-93
2023/10/06 03:48:43;;;;;;;12.60;4.22;;;14.00;75.80;;;;;;4813389;29;20050;-94
2023/10/06 03:51:11;;;;;;;10.55;4.22;;;14.00;75.90;;;;;;4806593;29;20089;-93
2023/10/06 03:53:38;;;;;;;9.85;4.20;;;14.10;76.00;;;;;;4826160;29;20050;-89
2023/10/06 03:56:06;;;;;;;9.60;4.07;;;14.00;76.30;;;;;;4810813;29;20045;-93
2023/10/06 03:58:33;;;;;;;8.77;4.00;;;14.00;76.80;;;;;;4808630;29;20577;-92
2023/10/06 04:01:08;;;;;;;8.95;3.88;;;14.10;76.80;;;;;;4811362;29;20050;-92
2023/10/06 04:03:36;;;;;;;12.73;4.28;;;14.10;76.90;;;;;;4811075;29;20041;-92
2023/10/06 04:06:04;;;;;;;10.00;4.10;;;14.10;77.00;;;;;;4808642;29;20408;-93
2023/10/06 04:08:31;;;;;;;9.63;3.97;;;14.20;76.90;;;;;;4826074;29;20049;-92
2023/10/06 04:10:58;;;;;;;18.73;4.80;;;14.10;77.00;;;;;;4809961;29;20145;-92
2023/10/06 04:13:26;;;;;;;10.52;4.18;;;14.20;76.90;;;;;;4811374;29;20049;-93
2023/10/06 04:15:54;;;;;;;11.32;4.55;;;14.20;77.10;;;;;;4811290;29;20505;-93
2023/10/06 04:18:22;;;;;;;11.73;4.53;;;14.20;76.80;;;;;;4811431;29;20050;-92
2023/10/06 04:20:52;;;;;;;11.23;3.90;;;14.20;76.80;;;;;;4826339;29;20054;-93
2023/10/06 04:23:23;;;;;;;9.80;4.50;;;14.30;77.20;;;;;;4826583;29;20705;-93
2023/10/06 04:25:54;;;;;;;9.52;3.72;;;14.30;77.10;;;;;;4810915;29;20512;-92
2023/10/06 04:28:24;;;;;;;9.77;4.55;;;14.30;76.90;;;;;;4814635;29;20139;-92
2023/10/06 04:30:54;;;;;;;10.57;4.47;;;14.30;76.80;;;;;;4814956;29;20085;-93
2023/10/06 04:33:25;;;;;;;11.02;4.57;;;14.30;76.80;;;;;;4819860;29;20050;-92
2023/10/06 04:35:55;;;;;;;12.07;5.37;;;14.30;76.40;;;;;;4814455;29;20050;-92
2023/10/06 04:38:23;;;;;;;13.75;4.60;;;14.30;76.50;;;;;;4814690;29;20054;-92
2023/10/06 04:40:51;;;;;;;25.42;4.55;;;14.30;76.60;;;;;;4815041;29;20049;-92
2023/10/06 04:43:19;;;;;;;12.18;4.85;;;14.30;76.50;;;;;;4815447;29;20386;-92
2023/10/06 04:45:47;;;;;;;13.73;4.30;;;14.30;76.40;;;;;;4812295;29;20493;-92
2023/10/06 04:48:15;;;;;;;10.37;4.20;;;14.30;76.40;;;;;;4813127;29;20136;-93
2023/10/06 04:50:42;;;;;;;9.90;4.30;;;14.30;76.30;;;;;;4814339;29;20480;-93
2023/10/06 04:53:11;;;;;;;13.07;4.40;;;14.40;76.30;;;;;;4814065;29;20045;-90
2023/10/06 04:55:39;;;;;;;22.02;4.88;;;14.30;76.20;;;;;;4815989;29;20046;-89
2023/10/06 04:58:13;;;;;;;13.55;4.35;;;14.30;76.30;;;;;;4820413;29;20038;-90
2023/10/06 05:00:46;;;;;;;10.63;4.00;;;14.30;76.50;;;;;;4829001;29;20583;-90
2023/10/06 05:03:14;;;;;;;11.07;5.03;;;14.30;76.50;;;;;;4814366;29;20050;-90
2023/10/06 05:05:42;;;;;;;13.40;4.30;;;14.30;76.50;;;;;;4818967;29;20050;-92
2023/10/06 05:08:09;;;;;;;12.85;4.65;;;14.30;76.60;;;;;;4815199;29;20136;-91
2023/10/06 05:10:37;;;;;;;10.55;4.43;;;14.20;76.60;;;;;;4813769;29;20054;-91
2023/10/06 05:13:06;;;;;;;10.97;4.67;;;14.30;76.50;;;;;;4813976;29;20046;-92
2023/10/06 05:15:34;;;;;;;8.73;3.65;;;14.20;76.40;;;;;;4812362;29;20563;-91
2023/10/06 05:18:03;;;;;;;10.45;4.13;;;14.20;76.40;;;;;;4813769;29;20046;-91
2023/10/06 05:20:35;;;;;;;9.85;3.95;;;14.20;76.60;;;;;;4810332;29;20401;-91
2023/10/06 05:23:09;;;;;;;9.32;4.30;;;14.20;76.60;;;;;;4823830;29;20050;-93
2023/10/06 05:25:37;;;;;;;9.97;4.57;;;14.20;76.80;;;;;;4815092;29;20060;-90
2023/10/06 05:28:10;;;;;;;16.10;4.88;;;14.20;77.00;;;;;;4828238;29;20053;-90
2023/10/06 05:30:39;;;;;;;13.40;4.90;;;14.20;76.90;;;;;;4810724;29;20074;-90
2023/10/06 05:33:06;;;;;;;12.38;5.03;;;14.10;76.80;;;;;;4827606;29;20052;-90
2023/10/06 05:35:41;;;;;;;15.52;5.43;;;14.10;76.80;;;;;;4812182;29;20528;-90
2023/10/06 05:38:19;;;;;;;14.83;5.13;;;14.10;77.00;;;;;;4825617;29;20042;-90
2023/10/06 05:40:48;;;;;;;15.18;4.90;;;14.00;77.20;;;;;;4812232;29;20061;-89
2023/10/06 05:43:16;;;;;;;11.95;5.20;;;14.00;77.00;;;;;;4812052;29;20054;-90
2023/10/06 05:45:45;;;;;;;12.52;4.90;;;13.90;76.90;;;;;;4826606;29;20049;-90
2023/10/06 05:48:12;;;;;;;12.02;4.57;;;13.90;76.80;;;;;;4817509;29;20046;-90
2023/10/06 05:50:43;;;;;;;12.40;4.90;;;13.90;77.00;;;;;;4812509;29;20081;-91
2023/10/06 05:53:19;;;;;;;14.00;4.47;;;13.90;77.10;;;;;;4812290;29;20069;-90
2023/10/06 05:55:49;;;;;;;11.60;4.60;;;13.90;77.20;;;;;;4812685;29;20050;-90
2023/10/06 05:58:19;;;;;;;14.82;5.65;;;13.90;77.50;;;;;;4811905;29;20050;-90
2023/10/06 06:00:56;;;;;;;13.20;5.53;;;13.90;77.80;;;;;;4826963;29;20052;-90
2023/10/06 06:03:23;;;;;;;12.10;5.27;;;13.90;78.10;;;;;;4811845;29;20129;-91
2023/10/06 06:05:52;;;;;;;12.35;5.97;;;13.90;78.20;;;;;;4812165;29;20054;-90
2023/10/06 06:08:20;;;;;;;13.65;6.43;;;13.90;78.50;;;;;;4826745;29;20531;-90
2023/10/06 06:10:48;;;;;;;15.57;5.75;;;13.90;78.40;;;;;;4811630;29;20069;-90
2023/10/06 06:13:17;;;;;;;11.77;5.60;;;13.80;78.10;;;;;;4812032;29;20046;-90
2023/10/06 06:15:48;;;;;;;13.23;5.97;;;13.80;78.00;;;;;;4827134;29;20111;-90
2023/10/06 06:18:15;;;;;;;14.85;6.60;;;13.80;77.80;;;;;;4811698;29;20046;-90
2023/10/06 06:20:42;;;;;;;11.95;6.10;;;13.80;77.80;;;;;;4811599;29;20497;-91
2023/10/06 06:23:12;;;;;;;16.85;6.43;;;13.80;77.80;;;;;;4812118;29;20068;-91
2023/10/06 06:25:40;;;;;;;14.40;6.25;;;13.80;77.80;;;;;;4811907;29;20499;-90
2023/10/06 06:28:08;;;;;;;14.30;6.57;;;13.80;78.00;;;;;;4810713;29;20050;-90
2023/10/06 06:30:39;;;;;;;17.95;5.95;;;13.90;78.00;;;;;;4811390;29;20057;-90
2023/10/06 06:33:12;;;;;;;12.48;6.60;;;14.00;77.70;;;;;;4811589;29;20409;-90
2023/10/06 06:35:42;;;;;;;13.82;6.38;;;14.00;77.40;;;;;;4812651;29;20054;-90
2023/10/06 06:38:12;;;;;;;12.77;6.00;;;14.20;77.40;;;;;;4822168;29;20042;-90
2023/10/06 06:40:41;;;;;;;13.47;6.10;;;14.30;77.10;;;;;;4826322;29;20049;-90
2023/10/06 06:43:10;;;;;;;12.18;7.00;;;14.40;76.90;;;;;;4811394;29;20062;-90
2023/10/06 06:45:41;;;;;;;14.65;6.25;;;14.40;77.20;;;;;;4811306;29;20042;-90
2023/10/06 06:48:13;;;;;;;11.90;5.47;;;14.40;76.90;;;;;;4811283;29;20400;-90
2023/10/06 06:50:44;;;;;;;13.27;6.15;;;14.50;76.10;;;;;;4825501;29;20053;-90
2023/10/06 06:53:12;;;;;;;14.33;6.00;;;14.50;76.10;;;;;;4811055;29;20576;-90
2023/10/06 06:55:40;;;;;;;13.00;6.05;;;14.50;75.40;;;;;;4811786;29;20532;-90
2023/10/06 06:58:11;;;;;;;11.30;5.07;;;14.50;75.30;;;;;;4825485;29;20568;-90
2023/10/06 07:00:42;;;;;;;18.58;5.53;;;14.60;75.20;;;;;;4826221;29;20102;-91
2023/10/06 07:03:10;;;;;;;13.05;5.43;;;14.70;75.30;;;;;;4811120;29;20046;-91
2023/10/06 07:05:39;;;;;;;13.20;5.33;;;14.60;75.20;;;;;;4826059;29;20106;-89
2023/10/06 07:08:07;;;;;;;12.68;4.80;;;14.70;74.90;;;;;;4810505;29;20454;-89
2023/10/06 07:10:38;;;;;;;13.38;4.68;;;14.70;74.60;;;;;;4810702;29;20068;-89
2023/10/06 07:13:06;;;;;;;13.75;4.72;;;14.60;74.30;;;;;;4809884;29;20042;-89
2023/10/06 07:15:33;;;;;;;10.18;4.45;;;14.60;74.20;;;;;;4810745;29;20069;-89
2023/10/06 07:18:01;;;;;;;11.27;4.13;;;14.60;74.40;;;;;;4810349;29;20041;-90
2023/10/06 07:20:30;;;;;;;11.77;4.13;;;14.50;73.80;;;;;;4817769;29;20046;-89
2023/10/06 07:23:02;;;;;;;11.93;3.88;;;14.50;74.00;;;;;;4811190;29;20052;-89
2023/10/06 07:25:29;;;;;;;9.38;3.63;;;14.50;73.40;;;;;;4810757;29;20141;-89
2023/10/06 07:27:58;;;;;;;8.45;3.10;;;14.50;74.00;;;;;;4810300;29;20042;-89
2023/10/06 07:30:28;;;;;;;8.67;3.10;;;14.50;73.20;;;;;;4810445;29;20489;-89
2023/10/06 07:32:55;;;;;;;8.50;3.15;;;14.50;72.70;;;;;;4811321;29;20050;-89
2023/10/06 07:35:36;;;;;;;17.58;8.32;;;14.50;72.50;;;;;;4809327;29;20438;-89
2023/10/06 07:38:04;;;;;;;43.97;16.92;;;14.50;72.60;;;;;;4810505;29;20050;-90
2023/10/06 07:40:32;;;;;;;12.48;7.63;;;14.50;72.80;;;;;;4810314;29;20088;-89
2023/10/06 07:43:02;;;;;;;13.93;3.80;;;14.60;72.40;;;;;;4809318;29;20146;-89
2023/10/06 07:45:31;;;;;;;10.10;3.05;;;14.70;72.70;;;;;;4810082;29;20041;-89
2023/10/06 07:47:58;;;;;;;11.05;3.05;;;14.70;72.60;;;;;;4810404;29;20133;-89
2023/10/06 07:50:28;;;;;;;8.10;3.42;;;14.70;72.30;;;;;;4810278;29;20053;-88
2023/10/06 07:52:57;;;;;;;7.80;3.08;;;14.80;71.50;;;;;;4825523;29;20061;-89
2023/10/06 07:55:24;;;;;;;8.23;3.37;;;14.80;71.50;;;;;;4810174;29;20050;-89
2023/10/06 07:57:51;;;;;;;10.50;4.45;;;14.90;71.80;;;;;;4809991;29;20493;-89
2023/10/06 08:00:29;;;;;;;9.73;3.13;;;14.80;71.80;;;;;;4810248;29;20090;-89
2023/10/06 08:02:59;;;;;;;9.30;3.40;;;14.80;71.20;;;;;;4828783;29;20501;-89
2023/10/06 08:05:27;;;;;;;10.40;4.60;;;14.80;71.20;;;;;;4827439;29;20489;-89
2023/10/06 08:08:00;;;;;;;7.33;3.00;;;14.80;71.20;;;;;;4813949;29;20069;-89
2023/10/06 08:10:30;;;;;;;10.30;2.85;;;14.90;71.10;;;;;;4828747;29;20046;-89
2023/10/06 08:13:01;;;;;;;14.90;4.28;;;15.00;70.40;;;;;;4813512;29;20053;-89
2023/10/06 08:15:32;;;;;;;6.28;2.25;;;15.00;70.60;;;;;;4813726;29;20053;-90
2023/10/06 08:17:59;;;;;;;7.00;2.63;;;15.00;70.60;;;;;;4813562;29;20046;-89
2023/10/06 08:20:27;;;;;;;6.90;2.37;;;15.20;69.70;;;;;;4813752;29;20042;-89
2023/10/06 08:22:56;;;;;;;7.00;2.70;;;15.30;69.70;;;;;;4813592;29;20079;-89
2023/10/06 08:25:24;;;;;;;9.55;2.58;;;15.40;71.00;;;;;;4813735;29;20493;-89
2023/10/06 08:27:53;;;;;;;8.25;2.78;;;15.40;68.10;;;;;;4813592;29;20060;-89
2023/10/06 08:30:21;;;;;;;7.57;2.30;;;15.50;67.90;;;;;;4828367;29;20050;-89
2023/10/06 08:32:53;;;;;;;8.10;2.40;;;15.60;67.60;;;;;;4814709;29;20229;-89
2023/10/06 08:35:21;;;;;;;9.00;2.53;;;15.80;68.00;;;;;;4813102;29;20106;-89
2023/10/06 08:37:50;;;;;;;6.82;2.65;;;15.80;66.40;;;;;;4828179;29;20411;-89
2023/10/06 08:40:26;;;;;;;7.60;2.30;;;15.80;66.80;;;;;;4814580;29;20115;-89
2023/10/06 08:42:56;;;;;;;7.90;2.67;;;15.90;67.10;;;;;;4813278;29;20052;-89
2023/10/06 08:45:25;;;;;;;6.60;2.20;;;16.00;67.00;;;;;;4813098;29;20039;-89
2023/10/06 08:48:01;;;;;;;7.05;2.35;;;16.00;66.20;;;;;;4813473;29;20057;-89
2023/10/06 08:50:32;;;;;;;8.13;2.20;;;15.90;65.60;;;;;;4827880;29;20053;-89
2023/10/06 08:53:01;;;;;;;6.22;2.03;;;15.80;65.40;;;;;;4813174;29;20061;-89
2023/10/06 08:55:30;;;;;;;8.02;2.30;;;15.90;65.30;;;;;;4813099;29;21173;-89
2023/10/06 08:58:00;;;;;;;7.80;2.33;;;16.00;64.70;;;;;;4812936;29;20508;-89
2023/10/06 09:00:34;;;;;;;5.70;2.25;;;16.00;64.70;;;;;;4827425;29;20080;-89
2023/10/06 09:03:08;;;;;;;7.03;2.45;;;16.10;64.80;;;;;;4828125;29;20087;-89
2023/10/06 09:05:46;;;;;;;6.78;2.38;;;15.90;64.10;;;;;;4812867;29;20057;-89
2023/10/06 09:08:15;;;;;;;7.85;2.55;;;15.70;65.20;;;;;;4811868;29;20114;-89
2023/10/06 09:10:50;;;;;;;7.07;2.27;;;15.50;65.80;;;;;;4821607;29;20046;-89
2023/10/06 09:13:19;;;;;;;6.32;1.80;;;15.60;66.10;;;;;;4810685;29;20077;-90
2023/10/06 09:15:59;;;;;;;6.43;2.42;;;15.60;66.20;;;;;;4812557;29;20060;-89
2023/10/06 09:18:27;;;;;;;5.68;1.98;;;15.70;66.20;;;;;;4827590;29;20054;-89
2023/10/06 09:21:10;;;;;;;8.15;2.40;;;15.80;64.40;;;;;;4826442;29;20106;-90
2023/10/06 09:23:40;;;;;;;7.53;2.43;;;15.90;64.50;;;;;;4812842;29;20085;-89
2023/10/06 09:26:11;;;;;;;7.10;2.22;;;16.10;64.10;;;;;;4812612;29;20129;-89
2023/10/06 09:28:52;;;;;;;6.30;2.45;;;16.20;64.60;;;;;;4812564;29;20458;-89
2023/10/06 09:31:44;;;;;;;10.45;5.00;;;16.30;64.20;;;;;;4812406;29;20072;-89
2023/10/06 09:34:22;;;;;;;7.65;1.98;;;16.40;63.50;;;;;;4826975;29;20054;-89
2023/10/06 09:36:50;;;;;;;5.87;2.10;;;16.30;63.60;;;;;;4812248;29;20069;-89
2023/10/06 09:39:33;;;;;;;7.20;2.42;;;16.30;63.60;;;;;;4811896;29;20061;-90
2023/10/06 09:42:01;;;;;;;5.20;1.80;;;16.20;62.70;;;;;;4812346;29;20050;-89
2023/10/06 09:44:30;;;;;;;6.15;2.13;;;16.10;62.50;;;;;;4812385;29;20042;-89
2023/10/06 09:47:00;;;;;;;6.60;2.33;;;16.10;63.70;;;;;;4812091;29;20500;-89
2023/10/06 09:49:30;;;;;;;6.30;2.20;;;16.20;62.70;;;;;;4812122;29;20085;-89
2023/10/06 09:52:03;;;;;;;7.93;2.50;;;16.10;61.80;;;;;;4811760;29;20050;-90
2023/10/06 09:54:31;;;;;;;9.40;2.65;;;16.10;63.50;;;;;;4826968;29;20042;-89
2023/10/06 09:57:03;;;;;;;8.40;2.75;;;16.30;64.10;;;;;;4811741;29;20057;-89
2023/10/06 09:59:32;;;;;;;8.02;2.70;;;16.30;61.70;;;;;;4827028;29;20137;-89
2023/10/06 10:02:03;;;;;;;7.50;2.87;;;16.40;61.10;;;;;;4811835;29;20049;-87
2023/10/06 10:04:51;;;;;;;11.13;3.08;;;16.50;63.70;;;;;;4826232;29;20050;-88
2023/10/06 10:07:20;;;;;;;8.80;3.20;;;16.50;62.50;;;;;;4817406;29;20050;-87
2023/10/06 10:09:47;;;;;;;8.65;3.08;;;16.50;62.70;;;;;;4828064;29;20054;-87
2023/10/06 10:12:30;;;;;;;8.90;2.70;;;16.50;61.60;;;;;;4811811;29;20527;-87
2023/10/06 10:15:22;;;;;;;9.17;2.80;;;16.60;61.30;;;;;;4826489;29;20140;-87
2023/10/06 10:18:05;;;;;;;7.53;2.67;;;16.70;60.80;;;;;;4827202;29;20050;-87
2023/10/06 10:20:33;;;;;;;6.85;2.50;;;16.70;61.50;;;;;;4826086;29;20050;-87
2023/10/06 10:23:03;;;;;;;8.90;2.97;;;16.90;61.30;;;;;;4825587;29;20267;-87
2023/10/06 10:25:31;;;;;;;7.18;2.60;;;16.90;61.90;;;;;;4811500;29;20046;-88
2023/10/06 10:28:15;;;;;;;6.80;2.73;;;16.90;60.30;;;;;;4811439;29;20052;-87
2023/10/06 10:31:00;;;;;;;7.93;2.75;;;17.00;61.60;;;;;;4810920;29;20061;-88
2023/10/06 10:33:33;;;;;;;9.18;2.83;;;17.00;61.50;;;;;;4826786;29;20145;-87
2023/10/06 10:36:18;;;;;;;6.10;2.35;;;17.00;60.10;;;;;;4826406;29;20054;-88
2023/10/06 10:39:12;;;;;;;6.97;2.53;;;17.10;59.30;;;;;;4811360;29;20048;-88
2023/10/06 10:41:40;;;;;;;5.93;2.50;;;17.20;60.40;;;;;;4810247;29;20050;-87
2023/10/06 10:44:11;;;;;;;7.95;2.88;;;17.30;59.70;;;;;;4811312;29;20042;-87
2023/10/06 10:46:54;;;;;;;8.52;3.10;;;17.50;60.40;;;;;;4825431;29;20049;-89
2023/10/06 10:49:22;;;;;;;5.78;2.30;;;17.60;60.30;;;;;;4826396;29;20076;-90
2023/10/06 10:52:02;;;;;;;6.75;2.90;;;17.70;61.20;;;;;;4811328;29;20125;-90
2023/10/06 10:54:33;;;;;;;7.57;2.60;;;17.70;59.30;;;;;;4826475;29;20053;-90
2023/10/06 10:57:13;;;;;;;10.02;3.13;;;17.70;60.10;;;;;;4826280;29;20098;-90
2023/10/06 11:00:00;;;;;;;5.70;2.72;;;17.70;61.50;;;;;;4811009;29;20045;-90
2023/10/06 11:02:41;;;;;;;6.70;2.83;;;17.80;59.90;;;;;;4811109;29;20046;-90
2023/10/06 11:05:09;;;;;;;8.18;2.70;;;17.90;59.00;;;;;;4826057;29;20056;-90
2023/10/06 11:07:37;;;;;;;5.03;2.20;;;17.90;59.00;;;;;;4811609;29;20052;-90
2023/10/06 11:10:04;;;;;;;7.82;3.08;;;17.90;59.00;;;;;;4810806;29;20041;-90
2023/10/06 11:12:34;;;;;;;7.35;2.63;;;18.00;60.50;;;;;;4825976;29;20053;-90
2023/10/06 11:15:16;;;;;;;9.82;2.92;;;18.00;58.80;;;;;;4811765;29;20053;-89
2023/10/06 11:17:44;;;;;;;7.30;3.40;;;18.10;57.80;;;;;;4809495;29;20046;-90
2023/10/06 11:20:13;;;;;;;7.20;3.00;;;18.10;57.10;;;;;;4812442;29;20049;-90
2023/10/06 11:22:53;;;;;;;6.75;2.38;;;18.20;57.70;;;;;;4826318;29;20126;-90
2023/10/06 11:25:27;;;;;;;6.55;2.22;;;18.20;58.40;;;;;;4826145;29;20134;-90
2023/10/06 11:28:02;;;;;;;6.65;2.33;;;18.30;57.10;;;;;;4826001;29;20079;-90
2023/10/06 11:30:33;;;;;;;5.65;1.95;;;18.30;57.50;;;;;;4840860;29;20106;-90
2023/10/06 11:33:05;;;;;;;7.17;2.00;;;18.20;57.10;;;;;;4826425;29;20513;-90
2023/10/06 11:35:33;;;;;;;7.32;2.50;;;18.30;58.00;;;;;;4825435;29;20069;-89
2023/10/06 11:38:13;;;;;;;6.00;2.42;;;18.30;57.80;;;;;;4830594;29;20053;-90
2023/10/06 11:40:40;;;;;;;5.70;2.20;;;18.40;58.50;;;;;;4840563;29;20096;-90
2023/10/06 11:43:12;;;;;;;7.10;2.08;;;18.40;58.30;;;;;;4826316;29;20046;-90
2023/10/06 11:45:41;;;;;;;4.70;1.97;;;18.40;57.10;;;;;;4839930;29;20129;-90
2023/10/06 11:48:25;;;;;;;3.95;1.60;;;18.50;57.60;;;;;;4825543;29;20382;-90
2023/10/06 11:51:08;;;;;;;5.45;1.70;;;18.60;56.00;;;;;;4825801;29;20118;-90
2023/10/06 11:53:37;;;;;;;5.43;1.75;;;18.60;56.10;;;;;;4825804;29;20528;-90
2023/10/06 11:56:10;;;;;;;6.55;1.70;;;18.50;56.20;;;;;;4826261;29;20054;-90
2023/10/06 11:58:40;;;;;;;6.10;1.90;;;18.50;56.40;;;;;;4826120;29;20408;-90
2023/10/06 12:01:36;;;;;;;5.72;1.90;;;18.60;57.20;;;;;;4826006;29;20046;-90
2023/10/06 12:04:08;;;;;;;5.85;1.85;;;18.60;56.30;;;;;;4839604;29;20413;-91
2023/10/06 12:06:42;;;;;;;6.43;1.83;;;18.70;56.80;;;;;;4826098;29;20057;-90
2023/10/06 12:09:25;;;;;;;6.10;1.88;;;18.80;57.90;;;;;;4825696;29;20042;-90
2023/10/06 12:11:56;;;;;;;6.37;1.80;;;18.90;56.30;;;;;;4840545;29;20528;-90
2023/10/06 12:14:25;;;;;;;4.63;1.60;;;19.00;58.50;;;;;;4825957;29;20069;-90
2023/10/06 12:16:54;;;;;;;5.40;1.83;;;19.00;55.90;;;;;;4840561;29;20041;-90
2023/10/06 12:19:23;;;;;;;9.55;2.10;;;19.00;55.30;;;;;;4840616;29;20107;-90
2023/10/06 12:21:51;;;;;;;4.97;1.90;;;19.00;54.30;;;;;;4825508;29;20050;-91
2023/10/06 12:24:22;;;;;;;3.27;1.30;;;19.00;54.50;;;;;;4825797;29;20042;-90
2023/10/06 12:26:49;;;;;;;5.07;1.48;;;18.90;54.80;;;;;;4825628;29;20520;-90
2023/10/06 12:29:16;;;;;;;6.25;1.92;;;19.00;55.10;;;;;;4825633;29;20042;-90
2023/10/06 12:31:45;;;;;;;6.32;2.00;;;19.00;56.20;;;;;;4824194;29;20046;-91
2023/10/06 12:34:15;;;;;;;7.38;2.00;;;19.00;55.30;;;;;;4831311;29;20050;-89
2023/10/06 12:36:48;;;;;;;7.37;1.73;;;18.90;54.90;;;;;;4825184;29;20062;-90
2023/10/06 12:39:51;;;;;;;3.60;1.38;;;19.00;55.50;;;;;;4840364;29;20046;-89
2023/10/06 12:42:11;;;;;;;5.43;1.80;;;19.00;54.60;;;;;;4836948;29;20045;-90
2023/10/06 12:44:42;;;;;;;4.82;1.38;;;19.10;54.50;;;;;;4825247;29;20176;-91
2023/10/06 12:47:13;;;;;;;4.40;1.52;;;19.20;56.80;;;;;;4855455;29;20046;-90
2023/10/06 12:49:45;;;;;;;3.53;1.60;;;19.20;54.30;;;;;;4828311;29;20121;-90
2023/10/06 12:52:12;;;;;;;5.45;1.85;;;19.30;55.40;;;;;;4828022;29;20489;-90
2023/10/06 12:54:39;;;;;;;6.53;1.90;;;19.40;54.90;;;;;;4828594;29;20046;-90
2023/10/06 12:57:06;;;;;;;6.63;1.80;;;19.50;54.80;;;;;;4828055;29;20083;-90
2023/10/06 12:59:34;;;;;;;6.18;1.67;;;19.50;54.00;;;;;;4828030;29;20081;-90
2023/10/06 13:02:04;;;;;;;4.90;1.40;;;19.50;53.50;;;;;;4828074;29;20054;-90
2023/10/06 13:04:31;;;;;;;4.00;1.35;;;19.60;55.20;;;;;;4828013;29;20129;-90
2023/10/06 13:06:59;;;;;;;5.32;1.58;;;19.50;53.40;;;;;;4828453;29;20509;-91
2023/10/06 13:09:27;;;;;;;5.07;1.70;;;19.50;54.50;;;;;;4828487;29;20046;-90
2023/10/06 13:11:54;;;;;;;4.35;1.50;;;19.50;53.60;;;;;;4828342;29;20050;-90
2023/10/06 13:14:21;;;;;;;4.27;1.80;;;19.40;54.30;;;;;;4827389;29;20041;-90
2023/10/06 13:16:48;;;;;;;5.30;1.60;;;19.30;54.10;;;;;;4827782;29;20101;-90
2023/10/06 13:19:16;;;;;;;5.53;1.90;;;19.20;54.40;;;;;;4826687;29;20049;-90
2023/10/06 13:21:43;;;;;;;6.57;1.60;;;19.30;55.90;;;;;;4827317;29;20170;-90
2023/10/06 13:24:12;;;;;;;5.47;2.08;;;19.40;55.60;;;;;;4828816;29;20580;-90
2023/10/06 13:26:42;;;;;;;4.53;1.77;;;19.50;56.20;;;;;;4827317;29;20436;-90
2023/10/06 13:29:11;;;;;;;6.57;2.17;;;19.60;56.20;;;;;;4827526;29;20097;-90
2023/10/06 13:31:39;;;;;;;6.15;1.88;;;19.60;55.10;;;;;;4830663;29;20054;-92
2023/10/06 13:34:23;;;;;;;5.28;1.50;;;19.50;54.20;;;;;;4844216;29;20057;-94
2023/10/06 13:36:51;;;;;;;4.90;1.88;;;19.50;54.50;;;;;;4829165;29;20394;-93
2023/10/06 13:39:24;;;;;;;11.33;1.97;;;19.50;55.10;;;;;;4829150;29;20050;-93
2023/10/06 13:41:51;;;;;;;5.57;1.77;;;19.50;55.80;;;;;;4847349;29;20445;-94
2023/10/06 13:44:18;;;;;;;4.22;1.60;;;19.50;55.70;;;;;;4844030;29;20489;-93
2023/10/06 13:46:46;;;;;;;5.88;1.90;;;19.40;54.70;;;;;;4828545;29;20129;-94
2023/10/06 13:49:13;;;;;;;7.57;3.25;;;19.30;55.40;;;;;;4828821;29;20573;-94
2023/10/06 13:51:41;;;;;;;5.70;1.87;;;19.30;56.00;;;;;;4828874;29;20572;-94
2023/10/06 13:54:09;;;;;;;7.50;2.22;;;19.30;55.80;;;;;;4829904;29;20050;-93
2023/10/06 13:56:36;;;;;;;5.00;1.77;;;19.30;56.10;;;;;;4828154;29;20144;-92
2023/10/06 13:59:04;;;;;;;7.32;2.33;;;19.20;56.00;;;;;;4841955;29;20046;-93
2023/10/06 14:01:34;;;;;;;6.05;1.92;;;19.10;55.80;;;;;;4826690;29;20089;-93
2023/10/06 14:04:05;;;;;;;6.93;1.80;;;19.10;57.10;;;;;;4827791;29;20514;-93
2023/10/06 14:06:32;;;;;;;6.68;2.00;;;19.00;56.50;;;;;;4828151;29;20061;-93
2023/10/06 14:08:59;;;;;;;7.65;2.10;;;19.10;56.80;;;;;;4827143;29;20050;-92
2023/10/06 14:11:30;;;;;;;6.38;2.38;;;19.10;56.50;;;;;;4843077;29;20136;-93
2023/10/06 14:13:57;;;;;;;8.32;2.63;;;19.10;56.90;;;;;;4843039;29;20125;-92
2023/10/06 14:16:25;;;;;;;6.53;2.30;;;19.10;57.20;;;;;;4827471;29;20118;-93
2023/10/06 14:18:53;;;;;;;7.38;2.17;;;19.10;56.50;;;;;;4827937;29;20188;-92
2023/10/06 14:21:20;;;;;;;5.65;2.40;;;19.00;57.30;;;;;;4840586;29;20054;-92
2023/10/06 14:23:49;;;;;;;6.38;2.30;;;19.10;57.20;;;;;;4826948;29;20050;-93
2023/10/06 14:26:18;;;;;;;6.90;2.10;;;19.00;56.90;;;;;;4826905;29;20049;-91
2023/10/06 14:28:46;;;;;;;8.17;2.07;;;19.00;57.00;;;;;;4827543;29;20080;-93
2023/10/06 14:31:25;;;;;;;9.00;2.47;;;19.10;57.20;;;;;;4827357;29;20493;-92
2023/10/06 14:34:33;;;;;;;6.90;2.28;;;19.10;58.00;;;;;;4825827;29;20409;-92
2023/10/06 14:36:46;;;;;;;6.32;1.83;;;19.20;57.00;;;;;;4841503;29;20050;-92
2023/10/06 14:47:13;;;;;;;5.50;1.50;;;18.90;56.80;;;;;;4841988;29;20061;-89
2023/10/06 14:49:42;;;;;;;7.07;2.22;;;18.80;56.10;;;;;;4825548;29;20077;-90
2023/10/06 14:52:11;;;;;;;6.18;1.98;;;18.70;56.60;;;;;;4828116;29;20389;-92
2023/10/06 14:54:38;;;;;;;5.50;1.90;;;18.60;57.40;;;;;;4825995;29;20053;-91
2023/10/06 14:57:05;;;;;;;6.15;2.05;;;18.50;58.30;;;;;;4827251;29;20045;-92
2023/10/06 14:59:33;;;;;;;9.70;2.40;;;18.50;58.80;;;;;;4824333;29;20065;-94
2023/10/06 15:02:09;;;;;;;6.13;1.80;;;18.40;58.20;;;;;;4828004;29;20046;-95
2023/10/06 15:04:41;;;;;;;5.13;1.98;;;18.30;58.20;;;;;;4830313;29;20097;-96
2023/10/06 15:07:10;;;;;;;12.80;2.37;;;18.40;59.10;;;;;;4827770;29;20058;-96
2023/10/06 15:09:39;;;;;;;10.18;1.80;;;18.40;59.20;;;;;;4825179;29;20170;-93
2023/10/06 15:12:06;;;;;;;5.95;1.95;;;18.20;58.90;;;;;;4842227;29;20058;-92
2023/10/06 15:14:35;;;;;;;7.53;2.33;;;18.20;58.90;;;;;;4826142;29;20050;-92
2023/10/06 15:17:04;;;;;;;7.40;1.90;;;18.10;59.20;;;;;;4827628;29;20074;-91
2023/10/06 15:19:35;;;;;;;9.50;2.67;;;18.10;59.70;;;;;;4826483;29;20060;-90
2023/10/06 15:22:07;;;;;;;7.15;2.28;;;18.00;59.80;;;;;;4825501;29;20133;-89
2023/10/06 15:24:36;;;;;;;8.93;2.47;;;18.00;60.20;;;;;;4825661;29;20165;-89
2023/10/06 15:27:06;;;;;;;6.97;2.45;;;18.00;60.30;;;;;;4826500;29;20042;-90
2023/10/06 15:29:34;;;;;;;9.30;2.45;;;18.00;60.00;;;;;;4826362;29;20049;-90
2023/10/06 15:32:02;;;;;;;9.87;2.97;;;18.00;60.40;;;;;;4811473;29;20493;-89
2023/10/06 15:34:33;;;;;;;9.80;2.95;;;18.00;60.40;;;;;;4826109;29;20064;-89
2023/10/06 15:37:04;;;;;;;6.57;2.40;;;18.00;60.90;;;;;;4839792;29;20141;-89
2023/10/06 15:39:32;;;;;;;8.35;3.03;;;17.90;61.00;;;;;;4825072;29;20038;-86
2023/10/06 15:41:59;;;;;;;8.65;2.60;;;17.90;61.00;;;;;;4825019;29;20045;-88
2023/10/06 15:44:27;;;;;;;8.23;2.80;;;17.80;60.90;;;;;;4825455;29;20061;-86
2023/10/06 15:46:56;;;;;;;7.07;2.40;;;17.70;61.20;;;;;;4839127;29;20042;-87
2023/10/06 15:49:24;;;;;;;7.25;2.42;;;17.80;61.40;;;;;;4840055;29;20054;-86
2023/10/06 15:51:52;;;;;;;8.25;2.63;;;17.80;61.40;;;;;;4825386;29;20053;-86
2023/10/06 15:54:19;;;;;;;7.97;2.75;;;17.70;61.60;;;;;;4825018;29;20496;-87
2023/10/06 15:56:47;;;;;;;9.47;3.00;;;17.80;61.80;;;;;;4840086;29;20471;-86
2023/10/06 15:59:15;;;;;;;11.25;3.10;;;17.70;62.00;;;;;;4823369;29;20050;-86
2023/10/06 16:01:44;;;;;;;10.70;3.28;;;17.60;62.30;;;;;;4839482;29;20042;-86
2023/10/06 16:04:13;;;;;;;13.65;4.78;;;17.70;62.40;;;;;;4825065;29;20125;-87
2023/10/06 16:06:45;;;;;;;18.38;6.85;;;17.50;62.50;;;;;;4825503;29;20136;-87
2023/10/06 16:09:16;;;;;;;16.77;7.23;;;17.50;62.60;;;;;;4825020;29;20066;-88